Argonne, Minnesota
Current Conditions -  °F | °C
As of 2:48 AM on Wednesday 22 Oct 2014 (Local Time) from KLVN Reporting Station
Clear Clear  
Wind Chill: 34°   Ceiling: Unl
Heat Index: 39°   Visibility: 10mi
Dew Point: 36°   Wind: 8mph
Humidity: 87%   Direction: 150°SSE
Pressure: 30.19"   Gusts: NA
Location:  44.6349°N, 93.283°W
Report Text: KLVN 220748Z AUTO 15007KT 10SM CLR 04/02 A3019 RMK AO2
Loading
Personal Weather Stations






























Interactive Weather Map
Tropical Storm Tracking
New forecast layout! Learn more

10-Day Weather Forecast

Advertisements
Track Severe Weather on mobile